Time;durP1;ratioP1;P1;durP2;ratioP2;P2;SDS_P1;SDS_P2;PMS_P1;PMS_P2;Temp;Humidity;BMP_temperature;BMP_pressure;BME280_temperature;BME280_humidity;BME280_pressure;Samples;Min_cycle;Max_cycle;Signal;HPM_P1;HPM_P2
2021/12/20 00:04:28;;;;;;;;;;;;;;;0.59;100.00;96257.25;10364375;28;2193;-76
2021/12/20 00:09:31;;;;;;;;;;;;;;;0.64;100.00;96243.44;10358388;28;2259;-76
2021/12/20 00:14:35;;;;;;;;;;;;;;;0.54;100.00;96238.50;10364188;28;1977;-74
2021/12/20 00:19:39;;;;;;;;;;;;;;;0.58;100.00;96246.88;10366848;28;1884;-74
2021/12/20 00:24:42;;;;;;;;;;;;;;;0.54;100.00;96249.09;10365104;28;1784;-75
2021/12/20 00:29:46;;;;;;;;;;;;;;;0.53;100.00;96242.97;10361743;28;2232;-76
2021/12/20 00:34:50;;;;;;;;;;;;;;;0.62;100.00;96237.50;10371559;28;1960;-75
2021/12/20 00:45:16;;;;;;;;;;;;;;;0.66;100.00;96230.81;10368359;28;1903;-76
2021/12/20 00:50:20;;;;;;;;;;;;;;;0.66;100.00;96228.16;10370515;28;1866;-75
2021/12/20 00:55:24;;;;;;;;;;;;;;;0.69;100.00;96230.38;10370858;28;2216;-76
2021/12/20 01:00:27;;;;;;;;;;;;;;;0.81;100.00;96234.06;10383583;28;1824;-76
2021/12/20 01:05:31;;;;;;;;;;;;;;;0.81;100.00;96234.88;10372512;28;1832;-76
2021/12/20 01:10:35;;;;;;;;;;;;;;;0.90;100.00;96245.31;10367139;28;1701;-75
2021/12/20 01:15:41;;;;;;;;;;;;;;;0.88;100.00;96232.25;10376682;28;1971;-75
2021/12/20 01:20:45;;;;;;;;;;;;;;;0.89;100.00;96239.19;10367499;28;1924;-74
2021/12/20 01:25:49;;;;;;;;;;;;;;;0.85;100.00;96239.78;10372328;28;1907;-76
2021/12/20 01:30:52;;;;;;;;;;;;;;;0.73;100.00;96236.91;10366351;28;1883;-76
2021/12/20 01:35:58;;;;;;;;;;;;;;;0.81;100.00;96221.66;10365480;28;1918;-75
2021/12/20 01:41:01;;;;;;;;;;;;;;;0.80;100.00;96222.69;10374415;28;1849;-76
2021/12/20 01:46:05;;;;;;;;;;;;;;;0.80;100.00;96219.22;10364059;28;1986;-75
2021/12/20 01:51:32;;;;;;;;;;;;;;;0.85;100.00;96234.50;10383631;28;1884;-74
2021/12/20 01:56:39;;;;;;;;;;;;;;;0.81;100.00;96232.25;10385062;22;3739;-75
2021/12/20 02:01:45;;;;;;;;;;;;;;;0.82;100.00;96228.56;10401794;28;1909;-74
2021/12/20 02:06:48;;;;;;;;;;;;;;;0.84;100.00;96222.28;10406483;28;1880;-75
2021/12/20 02:11:52;;;;;;;;;;;;;;;0.78;100.00;96208.84;10412117;28;1981;-74
2021/12/20 02:16:56;;;;;;;;;;;;;;;0.72;100.00;96222.88;10406843;28;1909;-74
2021/12/20 02:21:59;;;;;;;;;;;;;;;0.81;100.00;96218.19;10412340;28;1825;-74
2021/12/20 02:27:03;;;;;;;;;;;;;;;0.81;100.00;96213.72;10408957;28;2107;-73
2021/12/20 02:37:28;;;;;;;;;;;;;;;0.80;100.00;96213.94;10408287;28;1993;-74
2021/12/20 02:42:34;;;;;;;;;;;;;;;0.90;100.00;96213.53;10412104;28;1801;-74
2021/12/20 02:47:37;;;;;;;;;;;;;;;0.97;100.00;96204.59;10413818;28;1888;-75
2021/12/20 02:52:41;;;;;;;;;;;;;;;0.96;100.00;96208.25;10408888;28;1896;-74
2021/12/20 02:57:45;;;;;;;;;;;;;;;0.91;100.00;96202.75;10409151;28;2043;-73
2021/12/20 03:02:49;;;;;;;;;;;;;;;0.93;100.00;96195.41;10405844;28;1838;-73
2021/12/20 03:07:52;;;;;;;;;;;;;;;0.97;100.00;96211.72;10410271;28;1969;-74
2021/12/20 03:12:57;;;;;;;;;;;;;;;1.01;100.00;96203.16;10409618;28;1778;-74
2021/12/20 03:18:03;;;;;;;;;;;;;;;0.93;100.00;96203.34;10406101;28;1983;-75
2021/12/20 03:23:09;;;;;;;;;;;;;;;0.88;100.00;96208.44;10407925;28;2314;-74
2021/12/20 03:28:28;;;;;;;;;;;;;;;0.80;100.00;96198.84;10405526;28;1861;-75
2021/12/20 03:33:32;;;;;;;;;;;;;;;0.72;100.00;96207.00;10409116;28;1901;-74
2021/12/20 03:38:35;;;;;;;;;;;;;;;0.74;100.00;96206.78;10443583;28;1509;-75
2021/12/20 03:43:39;;;;;;;;;;;;;;;0.81;100.00;96207.63;10410404;28;1369;-74
2021/12/20 03:48:42;;;;;;;;;;;;;;;0.80;100.00;96208.63;10407297;28;1811;-75
2021/12/20 03:53:46;;;;;;;;;;;;;;;0.80;100.00;96208.63;10406388;28;2007;-74
2021/12/20 03:58:49;;;;;;;;;;;;;;;0.85;100.00;96208.84;10407344;28;1845;-74
2021/12/20 04:03:53;;;;;;;;;;;;;;;0.85;100.00;96202.75;10406626;28;1872;-75
2021/12/20 04:08:56;;;;;;;;;;;;;;;0.90;100.00;96202.97;10402819;28;2474;-74
2021/12/20 04:14:01;;;;;;;;;;;;;;;0.94;100.00;96199.69;10405884;28;1910;-74
2021/12/20 04:19:04;;;;;;;;;;;;;;;0.97;100.00;96199.28;10408087;28;1894;-75
2021/12/20 04:24:08;;;;;;;;;;;;;;;0.89;100.00;96203.94;10403059;28;1802;-75
2021/12/20 04:29:11;;;;;;;;;;;;;;;0.92;100.00;96204.38;10404586;28;1837;-74
2021/12/20 04:34:15;;;;;;;;;;;;;;;0.96;100.00;96212.75;10402025;28;2000;-74
2021/12/20 04:39:21;;;;;;;;;;;;;;;0.93;100.00;96221.88;10398585;28;2196;-74
2021/12/20 04:44:25;;;;;;;;;;;;;;;1.03;100.00;96227.59;10398296;28;1826;-75
2021/12/20 04:49:29;;;;;;;;;;;;;;;1.04;100.00;96223.94;10402288;28;1821;-75
2021/12/20 04:54:32;;;;;;;;;;;;;;;0.95;100.00;96230.44;10401951;28;1902;-75
2021/12/20 04:59:35;;;;;;;;;;;;;;;0.92;100.00;96230.84;10401531;28;1887;-74
2021/12/20 05:04:39;;;;;;;;;;;;;;;0.90;100.00;96232.88;10402364;28;1909;-74
2021/12/20 05:09:42;;;;;;;;;;;;;;;1.01;100.00;96234.91;10402026;28;1982;-74
2021/12/20 05:14:46;;;;;;;;;;;;;;;1.00;100.00;96243.88;10403519;28;1918;-74
2021/12/20 05:19:49;;;;;;;;;;;;;;;1.00;100.00;96241.22;10404642;28;1823;-74
2021/12/20 05:24:52;;;;;;;;;;;;;;;1.10;100.00;96253.28;10419974;28;1767;-73
2021/12/20 05:29:56;;;;;;;;;;;;;;;1.13;100.00;96263.44;10410660;28;1888;-75
2021/12/20 05:35:00;;;;;;;;;;;;;;;1.11;100.00;96254.91;10410685;28;1973;-75
2021/12/20 05:40:03;;;;;;;;;;;;;;;1.06;100.00;96252.84;10409679;28;1846;-73
2021/12/20 05:45:07;;;;;;;;;;;;;;;1.19;100.00;96246.75;10407981;28;1899;-75
2021/12/20 05:50:10;;;;;;;;;;;;;;;1.16;100.00;96252.47;10409217;28;1872;-75
2021/12/20 05:55:14;;;;;;;;;;;;;;;1.20;100.00;96258.97;10409933;28;1971;-74
2021/12/20 06:00:18;;;;;;;;;;;;;;;1.15;100.00;96256.94;10402300;28;1886;-74
2021/12/20 06:05:22;;;;;;;;;;;;;;;1.06;100.00;96266.91;10409765;28;1766;-75
2021/12/20 06:10:25;;;;;;;;;;;;;;;1.16;100.00;96263.88;10405434;28;1880;-74
2021/12/20 06:15:29;;;;;;;;;;;;;;;1.17;100.00;96275.28;10401416;28;1910;-75
2021/12/20 06:20:33;;;;;;;;;;;;;;;1.25;100.00;96267.13;10406964;28;1876;-74
2021/12/20 06:25:36;;;;;;;;;;;;;;;1.23;100.00;96271.81;10407805;28;1816;-74
2021/12/20 06:30:40;;;;;;;;;;;;;;;1.21;100.00;96273.84;10405753;28;1984;-75
2021/12/20 06:35:43;;;;;;;;;;;;;;;1.22;100.00;96275.50;10406813;28;1910;-75
2021/12/20 06:40:47;;;;;;;;;;;;;;;1.25;100.00;96267.13;10407916;28;1984;-73
2021/12/20 06:45:50;;;;;;;;;;;;;;;1.13;100.00;96280.16;10405368;28;1811;-75
2021/12/20 06:50:54;;;;;;;;;;;;;;;1.27;100.00;96278.31;10408506;28;1932;-74
2021/12/20 06:55:58;;;;;;;;;;;;;;;1.28;100.00;96290.56;10436057;28;1887;-73
2021/12/20 07:01:01;;;;;;;;;;;;;;;1.28;100.00;96290.56;10438840;28;1592;-74
2021/12/20 07:06:05;;;;;;;;;;;;;;;1.30;100.00;96291.19;10433562;28;1818;-74
2021/12/20 07:11:09;;;;;;;;;;;;;;;1.31;100.00;96292.81;10400954;28;1834;-75
2021/12/20 07:16:12;;;;;;;;;;;;;;;1.31;100.00;96287.50;10395581;28;1977;-74
2021/12/20 07:21:17;;;;;;;;;;;;;;;1.41;100.00;96293.22;10424469;28;1935;-74
2021/12/20 07:26:20;;;;;;;;;;;;;;;1.42;100.00;96294.03;10412598;28;1798;-74
2021/12/20 07:31:23;;;;;;;;;;;;;;;1.47;100.00;96303.00;10397411;28;1710;-73
2021/12/20 07:36:27;;;;;;;;;;;2.30;99.90;;;1.53;100.00;96302.19;10402098;28;1914;-74
2021/12/20 07:41:30;;;;;;;;;;;2.40;99.90;;;1.61;100.00;96303.81;10403608;28;1885;-72
2021/12/20 07:46:32;;;;;;;;;;;2.50;99.90;;;1.61;100.00;96307.28;10402034;28;1876;-71
2021/12/20 07:51:36;;;;;;;;;;;2.60;99.90;;;1.72;100.00;96315.63;10399840;28;1836;-72
2021/12/20 07:56:39;;;;;;;;;;;2.60;99.90;;;1.67;100.00;96318.09;10392878;28;1910;-71
2021/12/20 08:01:42;;;;;;;;;;;3.00;99.90;;;1.64;100.00;96324.59;10401581;28;1925;-72
2021/12/20 08:06:45;;;;;;;;;;;2.70;99.90;;;1.83;100.00;96313.19;10397339;28;1859;-72
2021/12/20 08:11:49;;;;;;;;;;;2.80;99.90;;;1.85;100.00;96307.69;10404778;28;1449;-72
2021/12/20 08:16:52;;;;;;;;;;;2.80;99.90;;;1.76;100.00;96317.66;10403069;28;1907;-73
2021/12/20 08:21:55;;;;;;;;;;;2.80;99.90;;;1.85;100.00;96315.63;10402567;28;1989;-74
2021/12/20 08:26:58;;;;;;;;;;;2.90;99.90;;;1.89;100.00;96322.16;10398603;28;1847;-72
2021/12/20 08:32:02;;;;;;;;;;;2.90;99.90;;;1.81;100.00;96319.72;10401126;28;1826;-71
2021/12/20 08:37:06;;;;;;;;;;;2.90;99.90;;;1.84;100.00;96330.69;10394145;28;2014;-70
2021/12/20 08:42:09;;;;;;;;;;;2.90;99.90;;;1.95;100.00;96321.31;10398218;28;1973;-72
2021/12/20 08:47:12;;;;;;;;;;;2.90;99.90;;;1.93;100.00;96331.31;10394942;28;1854;-72
2021/12/20 08:52:15;;;;;;;;;;;2.90;99.90;;;1.99;100.00;96332.34;10398789;28;1846;-73
2021/12/20 08:57:18;;;;;;;;;;;3.00;99.90;;;2.15;100.00;96335.38;10409236;28;1950;-73
2021/12/20 09:02:21;;;;;;;;;;;3.10;99.90;;;2.08;100.00;96339.88;10407642;28;1813;-72
2021/12/20 09:07:24;;;;;;;;;;;3.10;99.90;;;2.40;100.00;96329.41;10404391;28;1930;-74
2021/12/20 09:12:27;;;;;;;;;;;3.30;99.90;;;2.56;100.00;96342.22;10407020;28;1876;-72
2021/12/20 09:17:30;;;;;;;;;;;3.40;99.90;;;2.69;100.00;96341.34;10406092;28;1902;-71
2021/12/20 09:22:39;;;;;;;;;;;3.40;99.90;;;2.72;100.00;96338.28;10410461;28;1893;-72
2021/12/20 09:27:42;;;;;;;;;;;3.60;99.90;;;2.82;100.00;96349.28;10408579;28;1896;-72
2021/12/20 09:32:45;;;;;;;;;;;3.60;99.90;;;2.77;100.00;96345.63;10406346;28;1914;-73
2021/12/20 09:37:51;;;;;;;;;;;3.60;99.90;;;2.82;100.00;96343.97;10409036;28;1985;-73
2021/12/20 09:42:54;;;;;;;;;;;3.70;99.90;;;2.63;100.00;96348.31;10404337;28;1842;-72
2021/12/20 09:47:56;;;;;;;;;;;3.60;99.90;;;3.00;100.00;96345.94;10408215;28;1850;-73
2021/12/20 09:53:04;;;;;;;;;;;3.70;99.90;;;3.02;100.00;96343.88;10406713;28;1952;-73
2021/12/20 09:58:07;;;;;;;;;;;;;;;3.13;100.00;96334.41;10407913;28;1985;-72
2021/12/20 10:03:13;;;;;;;;;;;3.80;99.90;;;3.14;100.00;96325.41;10404364;28;1975;-73
2021/12/20 10:08:19;;;;;;;;;;;3.80;99.90;;;3.16;99.68;96333.97;10394114;28;2023;-73
2021/12/20 10:13:23;;;;;;;;;;;3.90;99.90;;;3.14;100.00;96330.72;10403303;28;1928;-73
2021/12/20 10:18:26;;;;;;;;;;;3.90;99.90;;;3.01;98.13;96334.28;10399840;28;2176;-72
2021/12/20 10:23:32;;;;;;;;;;;;;;;3.04;99.56;96333.03;10404074;28;1864;-73
2021/12/20 10:28:35;;;;;;;;;;;4.00;99.90;;;3.01;100.00;96328.16;10404154;28;2004;-71
2021/12/20 10:33:38;;;;;;;;;;;3.90;99.90;;;2.93;99.84;96326.56;10403511;28;1862;-72
2021/12/20 10:38:41;;;;;;;;;;;3.90;99.90;;;3.05;99.23;96334.66;10406941;28;1910;-71
2021/12/20 10:43:49;;;;;;;;;;;3.90;99.90;;;2.95;98.51;96321.84;10408829;28;1790;-73
2021/12/20 10:48:52;;;;;;;;;;;3.90;99.90;;;2.72;100.00;96328.47;10407726;28;1828;-73
2021/12/20 10:53:59;;;;;;;;;;;3.80;99.90;;;2.63;100.00;96327.09;10402203;28;1874;-71
2021/12/20 10:59:03;;;;;;;;;;;3.60;99.90;;;2.81;99.93;96326.41;10406085;28;1903;-73
2021/12/20 11:04:07;;;;;;;;;;;3.70;99.90;;;2.46;100.00;96317.94;10398913;28;1862;-72
2021/12/20 11:09:13;;;;;;;;;;;3.60;99.90;;;2.61;98.50;96320.38;10420333;28;2156;-71
2021/12/20 11:14:16;;;;;;;;;;;3.30;99.90;;;2.65;98.62;96319.72;10404710;28;1875;-72
2021/12/20 11:19:19;;;;;;;;;;;3.70;99.90;;;2.75;96.81;96321.13;10400616;28;1988;-73
2021/12/20 11:24:22;;;;;;;;;;;3.70;99.90;;;2.69;98.23;96315.63;10406686;28;2286;-71
2021/12/20 11:29:25;;;;;;;;;;;3.70;99.90;;;2.81;97.02;96322.94;10403002;28;1837;-72
2021/12/20 11:34:28;;;;;;;;;;;3.80;99.90;;;2.38;99.32;96326.16;10416738;28;1940;-73
2021/12/20 11:39:31;;;;;;;;;;;3.50;99.90;;;2.56;98.58;96322.84;10403475;28;1922;-73
2021/12/20 11:44:34;;;;;;;;;;;3.40;99.90;;;2.66;97.44;96313.38;10406543;28;1919;-72
2021/12/20 11:49:37;;;;;;;;;;;3.50;99.90;;;2.84;95.74;96314.53;10397086;28;1832;-72
2021/12/20 11:54:41;;;;;;;;;;;3.80;99.90;;;2.64;94.23;96304.00;10405861;28;1897;-72
2021/12/20 11:59:44;;;;;;;;;;;3.70;99.90;;;2.69;93.11;96312.97;10403170;28;1997;-73
2021/12/20 12:04:47;;;;;;;;;;;3.70;99.90;;;2.64;93.23;96307.47;10401145;28;1847;-73
2021/12/20 12:09:51;;;;;;;;;;;3.70;99.90;;;2.51;93.76;96299.56;10401758;28;2015;-73
2021/12/20 12:14:58;;;;;;;;;;;3.60;99.90;;;2.38;92.32;96292.47;10309349;23;1981;-69
2021/12/20 12:20:01;;;;;;;;;;;3.40;99.90;;;2.32;87.37;96295.13;10252074;28;1915;-69
2021/12/20 12:25:03;;;;;;;;;;;3.40;99.90;;;2.23;87.82;96291.06;10258275;28;1938;-68
2021/12/20 12:30:07;;;;;;;;;;;3.30;99.90;;;2.41;87.76;96292.03;10254767;28;1898;-68
2021/12/20 12:35:10;;;;;;;;;;;3.30;99.90;;;2.42;86.84;96296.34;10276316;28;1854;-68
2021/12/20 12:40:14;;;;;;;;;;;3.40;99.90;;;2.55;88.33;96284.88;10253493;28;2037;-69
2021/12/20 12:45:17;;;;;;;;;;;3.50;99.90;;;2.82;85.69;96282.09;10267403;28;1878;-68
2021/12/20 12:50:20;;;;;;;;;;;3.80;99.90;;;3.55;84.91;96277.09;10266392;28;1890;-68
2021/12/20 12:55:24;;;;;;;;;;;;;;;4.23;77.00;96277.06;10265437;28;1866;-68
2021/12/20 13:00:28;;;;;;;;;;;4.80;99.90;;;4.17;71.21;96277.13;10260824;28;1992;-68
2021/12/20 13:05:32;;;;;;;;;;;5.00;99.90;;;3.88;76.21;96282.16;10267320;28;1914;-69
2021/12/20 13:10:38;;;;;;;;;;;4.90;99.90;;;3.87;77.31;96282.34;10270062;28;2202;-69
2021/12/20 13:15:44;;;;;;;;;;;4.90;99.90;;;3.97;77.64;96278.16;10253835;28;1830;-68
2021/12/20 13:20:50;;;;;;;;;;;4.90;99.90;;;3.72;78.43;96278.19;10249917;28;1918;-69
2021/12/20 13:25:54;;;;;;;;;;;4.70;99.90;;;3.45;78.19;96276.78;10262904;28;1928;-69
2021/12/20 13:30:58;;;;;;;;;;;4.60;99.90;;;3.48;67.20;96273.66;10251881;28;1885;-69
2021/12/20 13:36:01;;;;;;;;;;;4.50;99.90;;;3.33;68.46;96286.47;10273051;28;1894;-69
2021/12/20 13:41:04;;;;;;;;;;;4.40;99.90;;;3.15;70.03;96284.53;10267416;28;1970;-68
2021/12/20 13:46:10;;;;;;;;;;;4.30;99.90;;;2.89;73.81;96281.00;10259221;28;1880;-69
2021/12/20 13:51:13;;;;;;;;;;;4.10;99.90;;;2.65;77.66;96290.50;10265979;28;1895;-70
2021/12/20 13:56:16;;;;;;;;;;;3.90;99.90;;;2.40;78.01;96289.59;10266119;28;1915;-68
2021/12/20 14:01:19;;;;;;;;;;;3.80;99.90;;;2.30;79.65;96286.59;10287849;28;1909;-70
2021/12/20 14:06:22;;;;;;;;;;;3.60;99.90;;;2.17;81.21;96295.41;10261728;28;1779;-69
2021/12/20 14:11:26;;;;;;;;;;;3.40;99.90;;;2.21;82.44;96299.25;10257952;28;1878;-70
2021/12/20 14:16:30;;;;;;;;;;;3.40;99.90;;;2.32;82.78;96301.25;10250872;28;1902;-69
2021/12/20 14:21:33;;;;;;;;;;;3.40;99.90;;;2.40;82.69;96308.97;10261239;28;1838;-70
2021/12/20 14:26:37;;;;;;;;;;;3.40;99.90;;;2.44;80.08;96304.09;10268363;28;1874;-69
2021/12/20 14:31:49;;;;;;;;;;;3.50;99.90;;;2.47;79.62;96306.31;10248356;28;1883;-69
2021/12/20 14:36:52;;;;;;;;;;;3.50;99.90;;;2.31;77.36;96315.56;10249132;28;1914;-69
2021/12/20 14:41:56;;;;;;;;;;;3.50;99.90;;;2.11;79.21;96318.25;10264102;28;1742;-69
2021/12/20 14:47:02;;;;;;;;;;;3.40;99.90;;;1.88;80.17;96315.22;10266005;28;1834;-67
2021/12/20 14:52:05;;;;;;;;;;;3.30;99.90;;;1.74;79.11;96310.94;10276500;28;1807;-69
2021/12/20 14:57:09;;;;;;;;;;;3.10;99.90;;;1.66;79.89;96313.81;10255008;28;1964;-67
2021/12/20 15:02:13;;;;;;;;;;;3.00;99.90;;;1.45;81.82;96323.56;10248912;28;1886;-68
2021/12/20 15:07:16;;;;;;;;;;;2.90;99.90;;;1.34;82.90;96311.75;10258890;28;1881;-68
2021/12/20 15:12:19;;;;;;;;;;;2.70;99.90;;;1.20;83.94;96312.75;10272592;28;1854;-69
2021/12/20 15:17:23;;;;;;;;;;;2.60;99.90;;;1.19;84.51;96315.59;10261173;28;1915;-68
2021/12/20 15:22:26;;;;;;;;;;;2.50;99.90;;;1.00;87.03;96304.75;10256350;28;1872;-68
2021/12/20 15:27:29;;;;;;;;;;;2.40;99.90;;;0.97;87.46;96315.78;10271600;28;2548;-69
2021/12/20 15:32:32;;;;;;;;;;;2.40;99.90;;;0.82;89.27;96321.22;10254396;28;1881;-69
2021/12/20 15:37:35;;;;;;;;;;;2.20;99.90;;;0.68;89.00;96318.72;10259207;28;1966;-68
2021/12/20 15:42:46;;;;;;;;;;;2.10;99.90;;;0.47;91.53;96317.03;10249791;28;1953;-69
2021/12/20 15:47:49;;;;;;;;;;;2.00;99.90;;;0.31;92.00;96326.09;10233723;28;1839;-68
2021/12/20 15:52:53;;;;;;;;;;;1.80;99.90;;;0.13;93.60;96318.69;10240325;28;2282;-68
2021/12/20 15:58:16;;;;;;;;;;;1.70;99.90;;;0.04;94.94;96321.66;10252127;28;2248;-67
2021/12/20 16:03:20;;;;;;;;;;;1.50;99.90;;;0.01;95.57;96324.72;10245672;28;2108;-68
2021/12/20 16:08:23;;;;;;;;;;;1.40;99.90;;;-0.06;96.33;96316.75;10251083;28;1876;-68
2021/12/20 16:13:26;;;;;;;;;;;1.40;99.90;;;-0.07;97.27;96321.19;10246464;28;1985;-71
2021/12/20 16:18:29;;;;;;;;;;;1.40;99.90;;;-0.15;98.03;96329.28;10246440;28;1907;-70
2021/12/20 16:23:33;;;;;;;;;;;1.40;99.90;;;-0.31;99.36;96330.38;10248599;28;1890;-69
2021/12/20 16:28:36;;;;;;;;;;;1.30;99.90;;;-0.28;99.85;96329.19;10268926;28;1414;-71
2021/12/20 16:33:39;;;;;;;;;;;1.10;99.90;;;-0.30;100.00;96331.19;10244093;28;1701;-68
2021/12/20 16:38:42;;;;;;;;;;;1.10;99.90;;;-0.46;100.00;96334.09;10242327;28;1988;-70
2021/12/20 16:43:48;;;;;;;;;;;1.10;99.90;;;-0.46;100.00;96331.47;10241846;28;1793;-68
2021/12/20 16:48:56;;;;;;;;;;;1.00;99.90;;;-0.47;100.00;96340.41;10242020;28;1398;-68
2021/12/20 16:54:00;;;;;;;;;;;1.00;99.90;;;-0.57;100.00;96338.91;10235138;28;2563;-68
2021/12/20 16:59:03;;;;;;;;;;;1.00;99.90;;;-0.71;100.00;96337.13;10240471;28;2633;-68
2021/12/20 17:09:30;;;;;;;;;;;0.80;99.90;;;-0.89;100.00;96353.44;10259850;28;1656;-70
2021/12/20 17:14:33;;;;;;;;;;;0.70;99.90;;;-0.97;100.00;96342.97;10253349;28;1436;-71
2021/12/20 17:19:36;;;;;;;;;;;0.50;99.90;;;-1.01;100.00;96336.47;10257030;28;1899;-71
2021/12/20 17:24:42;;;;;;;;;;;0.70;99.90;;;-1.13;100.00;96338.78;10281311;28;1864;-69
2021/12/20 17:29:45;;;;;;;;;;;0.40;99.90;;;-1.20;100.00;96340.53;10280819;28;1951;-69
2021/12/20 17:34:48;;;;;;;;;;;-1.10;99.90;;;-1.25;100.00;96337.63;10254174;28;2123;-70
2021/12/20 17:39:51;;;;;;;;;;;0.20;99.90;;;-1.26;100.00;96341.25;10256474;28;1918;-70
2021/12/20 17:44:54;;;;;;;;;;;0.20;99.90;;;-1.27;100.00;96344.06;10236354;28;1987;-70
2021/12/20 17:49:57;;;;;;;;;;;0.20;99.90;;;-1.34;100.00;96348.44;10241139;28;2049;-72
2021/12/20 17:55:01;;;;;;;;;;;0.10;99.90;;;-1.34;100.00;96354.53;10244727;28;1919;-70
2021/12/20 18:00:04;;;;;;;;;;;0.00;99.90;;;-1.40;100.00;96355.28;10243565;28;2019;-71
2021/12/20 18:05:10;;;;;;;;;;;0.00;99.90;;;-1.48;100.00;96342.19;10268085;28;1884;-71
2021/12/20 18:10:14;;;;;;;;;;;-0.10;99.90;;;-1.51;100.00;96355.78;10259042;28;1875;-71
2021/12/20 18:15:17;;;;;;;;;;;0.60;99.90;;;-1.56;100.00;96360.78;10253178;28;1730;-72
2021/12/20 18:20:21;;;;;;;;;;;-0.10;99.90;;;-1.61;100.00;96360.50;10277071;28;1951;-72
2021/12/20 18:25:25;;;;;;;;;;;0.00;99.90;;;-1.57;100.00;96353.88;10262087;28;1991;-72
2021/12/20 18:30:27;;;;;;;;;;;-0.20;99.90;;;-1.28;100.00;96352.97;10249489;28;1947;-72
2021/12/20 18:35:30;;;;;;;;;;;0.00;99.90;;;-1.40;100.00;96363.19;10232213;28;1898;-72
2021/12/20 18:40:33;;;;;;;;;;;0.00;99.90;;;-1.41;100.00;96361.56;10447052;23;2084;-76
2021/12/20 18:45:37;;;;;;;;;;;0.00;99.90;;;-1.50;100.00;96365.31;10459774;28;1436;-74
2021/12/20 18:50:40;;;;;;;;;;;0.00;99.90;;;-1.48;100.00;96364.09;10459459;28;1920;-73
2021/12/20 18:55:43;;;;;;;;;;;-0.10;99.90;;;-1.38;100.00;96366.47;10454016;28;1544;-72
2021/12/20 19:00:46;;;;;;;;;;;0.00;99.90;;;-1.31;100.00;96364.72;10447691;28;1985;-73
2021/12/20 19:05:50;;;;;;;;;;;0.10;99.90;;;-1.19;100.00;96371.16;10450112;28;1475;-74
2021/12/20 19:11:02;;;;;;;;;;;0.00;99.90;;;-0.93;100.00;96370.66;10454623;28;1466;-73
2021/12/20 19:16:05;;;;;;;;;;;0.20;99.90;;;-1.10;100.00;96367.41;10457360;28;1455;-74
2021/12/20 19:21:09;;;;;;;;;;;0.30;99.90;;;-1.17;100.00;96369.16;10444172;28;1973;-74
2021/12/20 19:26:12;;;;;;;;;;;0.20;99.90;;;-1.35;100.00;96366.09;10457517;28;1681;-74
2021/12/20 19:31:31;;;;;;;;;;;0.10;99.90;;;-1.40;100.00;96360.56;10449870;28;1631;-73
2021/12/20 19:36:34;;;;;;;;;;;0.00;99.90;;;-1.51;100.00;96361.03;10446161;28;1344;-73
2021/12/20 19:41:38;;;;;;;;;;;0.00;99.90;;;-1.51;100.00;96366.31;10447605;28;1913;-73
2021/12/20 19:46:41;;;;;;;;;;;-0.10;99.90;;;-1.47;100.00;96359.66;10456521;28;1359;-73
2021/12/20 19:51:45;;;;;;;;;;;-0.10;99.90;;;-1.47;100.00;96359.66;10461356;28;1480;-72
2021/12/20 19:56:48;;;;;;;;;;;-0.10;99.90;;;-1.55;100.00;96365.84;10439862;28;1562;-75
2021/12/20 20:01:52;;;;;;;;;;;-0.20;99.90;;;-1.46;100.00;96362.13;10446229;28;1977;-74
2021/12/20 20:06:56;;;;;;;;;;;-0.20;99.90;;;-1.51;100.00;96361.84;10452632;28;1881;-73
2021/12/20 20:11:59;;;;;;;;;;;-0.20;99.90;;;-1.48;100.00;96358.03;10450624;28;1435;-72
2021/12/20 20:17:04;;;;;;;;;;;-0.20;99.90;;;-1.47;100.00;96357.00;10457635;28;1426;-72
2021/12/20 20:22:10;;;;;;;;;;;-0.20;99.90;;;-1.44;100.00;96359.31;10459345;28;1983;-73
2021/12/20 20:27:13;;;;;;;;;;;-0.10;99.90;;;-1.42;100.00;96359.94;10463205;28;1408;-73
2021/12/20 20:32:17;;;;;;;;;;;-0.20;99.90;;;-1.48;100.00;96360.66;10453123;28;1915;-73
2021/12/20 20:37:20;;;;;;;;;;;-0.20;99.90;;;-1.64;100.00;96359.06;10453238;28;1795;-73
2021/12/20 20:42:25;;;;;;;;;;;-0.30;99.90;;;-1.75;100.00;96368.22;10455831;28;1988;-73
2021/12/20 20:47:28;;;;;;;;;;;-0.40;99.90;;;-1.79;100.00;96359.03;10450629;28;1881;-72
2021/12/20 20:52:31;;;;;;;;;;;-0.40;99.90;;;-1.89;100.00;96366.41;10456527;28;1811;-72
2021/12/20 20:57:35;;;;;;;;;;;-0.60;99.90;;;-1.97;100.00;96358.59;10457560;28;1849;-73
2021/12/20 21:02:38;;;;;;;;;;;-0.50;99.90;;;-1.99;100.00;96365.84;10462975;28;1981;-73
2021/12/20 21:07:42;;;;;;;;;;;-0.60;99.90;;;-2.01;100.00;96367.84;10456527;28;1858;-72
2021/12/20 21:12:45;;;;;;;;;;;;;;;-2.19;100.00;96376.91;10448262;28;2068;-72
2021/12/20 21:17:49;;;;;;;;;;;;;;;-2.07;100.00;96372.03;10456516;28;1887;-74
2021/12/20 21:22:53;;;;;;;;;;;;;;;-2.20;100.00;96361.28;10466899;28;1989;-72
2021/12/20 21:27:57;;;;;;;;;;;-1.00;99.90;;;-2.15;100.00;96360.75;10468354;28;1815;-73
2021/12/20 21:33:01;;;;;;;;;;;-1.10;99.90;;;-2.17;100.00;96353.03;10459909;28;1886;-72
2021/12/20 21:38:04;;;;;;;;;;;-1.10;99.90;;;-2.24;100.00;96345.03;10462600;28;1926;-73
2021/12/20 21:43:08;;;;;;;;;;;-1.10;99.90;;;-2.31;100.00;96351.19;10464379;28;1914;-73
2021/12/20 21:48:11;;;;;;;;;;;-1.10;99.90;;;-2.35;100.00;96360.47;10464178;28;1912;-72
2021/12/20 21:53:15;;;;;;;;;;;;;;;-2.49;100.00;96359.41;10454252;28;1856;-73
2021/12/20 21:58:18;;;;;;;;;;;-1.30;99.90;;;-2.41;100.00;96362.00;10464632;28;1844;-73
2021/12/20 22:03:22;;;;;;;;;;;-1.10;99.90;;;-2.43;100.00;96353.44;10466787;28;1820;-72
2021/12/20 22:08:25;;;;;;;;;;;-1.40;99.90;;;-2.48;100.00;96361.06;10462749;28;1941;-73
2021/12/20 22:13:28;;;;;;;;;;;-1.20;99.90;;;-2.48;100.00;96350.53;10465036;28;1852;-73
2021/12/20 22:18:31;;;;;;;;;;;-1.10;99.90;;;-2.50;100.00;96347.25;10471938;28;1965;-73
2021/12/20 22:23:34;;;;;;;;;;;-1.30;99.90;;;-2.51;100.00;96351.69;10478171;28;1923;-73
2021/12/20 22:28:37;;;;;;;;;;;-1.40;99.90;;;-2.54;100.00;96351.25;10465708;28;1856;-73
2021/12/20 22:33:40;;;;;;;;;;;-1.30;99.90;;;-2.59;100.00;96358.84;10457188;28;1853;-72
2021/12/20 22:38:44;;;;;;;;;;;-1.30;99.90;;;-2.59;100.00;96359.66;10462581;28;1895;-73
2021/12/20 22:43:47;;;;;;;;;;;-1.40;99.90;;;-2.59;100.00;96350.97;10457715;28;1849;-73
2021/12/20 22:48:54;;;;;;;;;;;-1.40;99.90;;;-2.64;100.00;96350.66;10466372;28;1811;-73
2021/12/20 22:53:58;;;;;;;;;;;-1.40;99.90;;;-2.67;100.00;96353.63;10467836;28;1802;-73
2021/12/20 22:59:02;;;;;;;;;;;-1.50;99.90;;;-2.72;100.00;96352.38;10466203;28;2006;-72
2021/12/20 23:04:05;;;;;;;;;;;-1.50;99.90;;;-2.78;100.00;96347.81;10462339;28;1818;-74
2021/12/20 23:09:11;;;;;;;;;;;-1.50;99.90;;;-2.82;100.00;96349.13;10450644;28;1878;-72
2021/12/20 23:14:19;;;;;;;;;;;-1.60;99.90;;;-2.87;100.00;96350.66;10458302;28;1866;-73
2021/12/20 23:19:23;;;;;;;;;;;-1.50;99.90;;;-2.89;100.00;96350.84;10456972;28;1981;-74
2021/12/20 23:24:26;;;;;;;;;;;-1.60;99.90;;;-2.94;100.00;96340.03;10466289;28;1897;-72
2021/12/20 23:29:29;;;;;;;;;;;-1.60;99.90;;;-2.90;100.00;96330.78;10459991;28;1823;-73
2021/12/20 23:34:33;;;;;;;;;;;-1.60;99.90;;;-2.92;100.00;96329.34;10457964;28;1943;-71
2021/12/20 23:39:41;;;;;;;;;;;-1.60;99.90;;;-2.93;100.00;96331.13;10463377;28;1909;-71
2021/12/20 23:44:44;;;;;;;;;;;-1.60;99.90;;;-2.96;100.00;96320.97;10460925;28;1854;-72
2021/12/20 23:49:47;;;;;;;;;;;-1.70;99.90;;;-3.02;100.00;96311.97;10454353;28;1871;-72
2021/12/20 23:54:50;;;;;;;;;;;-1.70;99.90;;;-3.11;100.00;96314.84;10449084;28;1810;-73
2021/12/20 23:59:55;;;;;;;;;;;-1.70;99.90;;;-3.17;100.00;96303.22;10454944;28;1983;-73
